Agua Linda, Arizona
Current Conditions -  °F | °C
As of 7:54 PM on Sunday 23 Nov 2014 (Local Time) from KOLS Reporting Station
Clear Clear  
Wind Chill: 42°   Ceiling: Unl
Heat Index: 44°   Visibility: 10mi
Dew Point: 21°   Wind: 5mph
Humidity: 40%   Direction: 50°NE
Pressure: 30.1"   Gusts: NA
Location:  31.6134°N, 110.959°W
Report Text: KOLS 240254Z AUTO 05004KT 10SM CLR 07/M06 A3010 RMK AO2 SLP176 T00671061 53016
Loading
Personal Weather Stations






























Interactive Weather Map New forecast layout! Learn more

10-Day Weather Forecast

Advertisements
Track Severe Weather on mobile